createdAt,value
2017-05-08T00:00:05.373Z,0
2017-05-08T00:01:05.696Z,0
2017-05-08T00:03:05.754Z,0
2017-05-08T00:04:05.772Z,0
2017-05-08T00:05:05.789Z,0
2017-05-08T00:06:05.822Z,0
2017-05-08T00:07:20.438Z,0
2017-05-08T00:08:05.846Z,0
2017-05-08T00:09:05.866Z,0
2017-05-08T00:10:05.892Z,0
2017-05-08T00:11:05.908Z,0
2017-05-08T00:12:05.642Z,0
2017-05-08T00:13:05.952Z,0
2017-05-08T00:14:05.988Z,0
2017-05-08T00:15:06.030Z,0
2017-05-08T00:16:06.020Z,0
2017-05-08T00:18:06.057Z,0
2017-05-08T00:19:20.698Z,0
2017-05-08T00:20:06.100Z,0
2017-05-08T00:21:06.126Z,0
2017-05-08T00:22:06.147Z,0
2017-05-08T00:23:35.099Z,0
2017-05-08T00:24:06.189Z,0
2017-05-08T00:25:06.207Z,0
2017-05-08T00:26:06.232Z,0
2017-05-08T00:27:05.947Z,0
2017-05-08T00:28:06.277Z,0
2017-05-08T00:29:06.293Z,0
2017-05-08T00:30:06.320Z,0
2017-05-08T00:31:06.034Z,0
2017-05-08T00:32:06.053Z,0
2017-05-08T00:33:06.415Z,0
2017-05-08T00:34:06.397Z,0
2017-05-08T00:35:21.036Z,0
2017-05-08T00:36:06.440Z,0
2017-05-08T00:37:06.461Z,0
2017-05-08T00:38:21.101Z,0
2017-05-08T00:39:06.507Z,0
2017-05-08T00:40:06.527Z,0
2017-05-08T00:41:06.546Z,0
2017-05-08T00:42:06.572Z,0
2017-05-08T00:43:06.601Z,0
2017-05-08T00:44:06.610Z,0
2017-05-08T00:45:06.634Z,0
2017-05-08T00:47:06.671Z,0
2017-05-08T00:48:06.696Z,0
2017-05-08T00:49:06.727Z,0
2017-05-08T00:50:06.437Z,0
2017-05-08T00:51:21.371Z,0
2017-05-08T00:52:06.783Z,0
2017-05-08T00:53:06.806Z,0
2017-05-08T00:54:06.823Z,0
2017-05-08T00:55:06.846Z,0
2017-05-08T00:56:06.867Z,0
2017-05-08T00:57:06.886Z,0
2017-05-08T00:58:06.912Z,0
2017-05-08T00:59:06.923Z,0
2017-05-08T01:00:21.565Z,0
2017-05-08T01:01:21.281Z,0
2017-05-08T01:02:06.989Z,0
2017-05-08T01:03:07.011Z,0
2017-05-08T01:04:07.035Z,0
2017-05-08T01:05:07.052Z,0
2017-05-08T01:06:21.687Z,0
2017-05-08T01:07:07.093Z,0
2017-05-08T01:08:07.117Z,0
2017-05-08T01:09:07.138Z,0
2017-05-08T01:10:21.772Z,0
2017-05-08T01:11:21.801Z,0
2017-05-08T01:12:07.199Z,0
2017-05-08T01:13:07.219Z,0
2017-05-08T01:14:07.274Z,0
2017-05-08T01:15:07.263Z,0
2017-05-08T01:16:07.282Z,0
2017-05-08T01:17:07.011Z,0
2017-05-08T01:18:07.328Z,0
2017-05-08T01:19:07.343Z,0
2017-05-08T01:20:07.367Z,0
2017-05-08T01:21:22.004Z,0
2017-05-08T01:22:07.104Z,0
2017-05-08T01:24:07.451Z,0
2017-05-08T01:26:21.807Z,0
2017-05-08T01:27:07.512Z,0
2017-05-08T01:28:07.544Z,0
2017-05-08T01:29:07.250Z,0
2017-05-08T01:30:07.272Z,0
2017-05-08T01:31:07.596Z,0
2017-05-08T01:32:07.615Z,0
2017-05-08T01:33:07.636Z,0
2017-05-08T01:34:07.355Z,0
2017-05-08T01:35:22.293Z,0
2017-05-08T01:36:07.697Z,0
2017-05-08T01:37:07.720Z,0
2017-05-08T01:38:07.744Z,0
2017-05-08T01:39:22.377Z,0
2017-05-08T01:40:07.482Z,0
2017-05-08T01:41:07.805Z,0
2017-05-08T01:42:22.439Z,0
2017-05-08T01:43:07.892Z,0
2017-05-08T01:44:07.864Z,0
2017-05-08T01:45:07.581Z,0
2017-05-08T01:46:07.904Z,0
2017-05-08T01:47:22.545Z,0
2017-05-08T01:48:07.949Z,0
2017-05-08T01:49:07.970Z,0
2017-05-08T01:50:07.685Z,0
2017-05-08T01:51:22.624Z,0
2017-05-08T01:52:08.029Z,0
2017-05-08T01:53:08.050Z,0
2017-05-08T01:54:22.687Z,0
2017-05-08T01:56:08.114Z,0
2017-05-08T01:57:07.833Z,0
2017-05-08T01:58:22.771Z,0
2017-05-08T01:59:07.877Z,0
2017-05-08T02:00:07.894Z,0
2017-05-08T02:01:08.223Z,0
2017-05-08T02:02:08.248Z,0
2017-05-08T02:03:08.263Z,0
2017-05-08T02:04:08.282Z,0
2017-05-08T02:05:08.306Z,0
2017-05-08T02:06:22.940Z,0
2017-05-08T02:07:08.344Z,0
2017-05-08T02:08:08.060Z,0
2017-05-08T02:09:08.388Z,0
2017-05-08T02:12:08.450Z,0
2017-05-08T02:13:23.086Z,0
2017-05-08T02:14:08.488Z,0
2017-05-08T02:15:08.208Z,0
2017-05-08T02:16:08.536Z,0
2017-05-08T02:17:08.247Z,0
2017-05-08T02:18:08.574Z,0
2017-05-08T02:19:08.595Z,0
2017-05-08T02:20:08.622Z,0
2017-05-08T02:21:08.639Z,0
2017-05-08T02:22:08.697Z,0
2017-05-08T02:23:23.297Z,0
2017-05-08T02:24:08.700Z,0
2017-05-08T02:25:08.727Z,0
2017-05-08T02:26:08.743Z,0
2017-05-08T02:27:08.458Z,0
2017-05-08T02:28:08.781Z,0
2017-05-08T02:29:08.807Z,0
2017-05-08T02:30:08.519Z,0
2017-05-08T02:31:08.844Z,0
2017-05-08T02:32:08.867Z,0
2017-05-08T02:33:08.887Z,0
2017-05-08T02:34:08.908Z,0
2017-05-08T02:35:08.967Z,0
2017-05-08T02:36:23.566Z,0
2017-05-08T02:37:23.282Z,0
2017-05-08T02:38:08.990Z,0
2017-05-08T02:39:09.014Z,0
2017-05-08T02:40:09.039Z,0
2017-05-08T02:41:23.670Z,0
2017-05-08T02:43:09.102Z,0
2017-05-08T02:44:09.117Z,0
2017-05-08T02:45:38.373Z,4
2017-05-08T02:46:08.855Z,4
2017-05-08T02:47:08.876Z,4
2017-05-08T02:48:08.895Z,0
2017-05-08T02:49:09.224Z,4
2017-05-08T02:50:09.249Z,4
2017-05-08T02:51:09.263Z,4
2017-05-08T02:52:09.282Z,8
2017-05-08T02:53:23.917Z,8
2017-05-08T02:54:09.340Z,4
2017-05-08T02:55:23.659Z,8
2017-05-08T02:56:23.976Z,8
2017-05-08T02:57:09.381Z,12
2017-05-08T02:58:24.019Z,12
2017-05-08T02:59:09.122Z,12
2017-05-08T03:00:09.143Z,12
2017-05-08T03:01:24.080Z,12
2017-05-08T03:02:09.184Z,16
2017-05-08T03:03:09.504Z,16
2017-05-08T03:04:09.528Z,20
2017-05-08T03:05:09.548Z,20
2017-05-08T03:06:09.569Z,24
2017-05-08T03:07:09.589Z,24
2017-05-08T03:08:09.618Z,24
2017-05-08T03:09:24.254Z,28
2017-05-08T03:10:24.297Z,32
2017-05-08T03:11:24.285Z,32
2017-05-08T03:12:24.309Z,32
2017-05-08T03:13:09.710Z,32
2017-05-08T03:14:09.735Z,32
2017-05-08T03:17:24.407Z,40
2017-05-08T03:18:09.509Z,40
2017-05-08T03:19:09.835Z,44
2017-05-08T03:20:09.854Z,44
2017-05-08T03:21:09.874Z,52
2017-05-08T03:22:09.896Z,60
2017-05-08T03:23:09.947Z,68
2017-05-08T03:24:09.633Z,76
2017-05-08T03:25:09.956Z,84
2017-05-08T03:26:09.981Z,96
2017-05-08T03:28:10.018Z,116
2017-05-08T03:29:24.655Z,112
2017-05-08T03:30:09.761Z,112
2017-05-08T03:31:10.077Z,112
2017-05-08T03:32:10.103Z,108
2017-05-08T03:33:24.736Z,116
2017-05-08T03:34:10.164Z,120
2017-05-08T03:35:10.161Z,120
2017-05-08T03:36:09.885Z,124
2017-05-08T03:37:10.208Z,124
2017-05-08T03:38:24.842Z,124
2017-05-08T03:39:10.244Z,132
2017-05-08T03:40:09.962Z,136
2017-05-08T03:41:09.983Z,148
2017-05-08T03:42:24.920Z,148
2017-05-08T03:43:24.940Z,152
2017-05-08T03:44:10.348Z,156
2017-05-08T03:45:10.067Z,160
2017-05-08T03:46:10.114Z,160
2017-05-08T03:47:10.134Z,156
2017-05-08T03:48:25.046Z,140
2017-05-08T03:50:10.469Z,128
2017-05-08T03:51:10.491Z,128
2017-05-08T03:52:10.215Z,128
2017-05-08T03:53:10.534Z,128
2017-05-08T03:54:10.248Z,124
2017-05-08T03:55:24.887Z,128
2017-05-08T03:56:10.595Z,132
2017-05-08T03:57:10.309Z,140
2017-05-08T03:58:10.639Z,152
2017-05-08T03:59:25.278Z,164
2017-05-08T04:00:25.294Z,176
2017-05-08T04:02:10.781Z,200
2017-05-08T04:03:10.435Z,212
2017-05-08T04:04:10.760Z,216
2017-05-08T04:05:10.474Z,228
2017-05-08T04:06:10.498Z,236
2017-05-08T04:07:10.822Z,244
2017-05-08T04:08:10.538Z,244
2017-05-08T04:09:10.861Z,248
2017-05-08T04:10:10.280Z,248
2017-05-08T04:11:10.903Z,244
2017-05-08T04:12:10.927Z,240
2017-05-08T04:13:25.560Z,240
2017-05-08T04:14:10.975Z,244
2017-05-08T04:15:25.604Z,252
2017-05-08T04:16:11.024Z,256
2017-05-08T04:17:10.730Z,264
2017-05-08T04:18:11.057Z,280
2017-05-08T04:19:11.079Z,296
2017-05-08T04:20:25.707Z,300
2017-05-08T04:21:11.118Z,296
2017-05-08T04:22:10.828Z,284
2017-05-08T04:23:11.159Z,276
2017-05-08T04:24:11.175Z,276
2017-05-08T04:25:11.196Z,280
2017-05-08T04:26:11.226Z,284
2017-05-08T04:27:11.239Z,284
2017-05-08T04:28:11.254Z,280
2017-05-08T04:29:25.890Z,276
2017-05-08T04:30:10.687Z,292
2017-05-08T04:32:11.345Z,396
2017-05-08T04:33:11.360Z,436
2017-05-08T04:34:11.090Z,460
2017-05-08T04:35:11.402Z,468
2017-05-08T04:36:26.035Z,472
2017-05-08T04:37:11.441Z,492
2017-05-08T04:38:11.462Z,552
2017-05-08T04:39:26.104Z,652
2017-05-08T04:41:11.220Z,756
2017-05-08T04:42:11.544Z,772
2017-05-08T04:43:11.569Z,740
2017-05-08T04:44:11.589Z,684
2017-05-08T04:45:11.610Z,612
2017-05-08T04:46:25.939Z,516
2017-05-08T04:47:11.647Z,468
2017-05-08T04:48:11.670Z,420
2017-05-08T04:49:26.307Z,376
2017-05-08T04:50:11.710Z,352
2017-05-08T04:51:11.733Z,332
2017-05-08T04:52:26.371Z,336
2017-05-08T04:53:11.773Z,344
2017-05-08T04:54:26.416Z,360
2017-05-08T04:55:11.814Z,372
2017-05-08T04:56:11.533Z,372
2017-05-08T04:57:11.857Z,384
2017-05-08T04:58:11.573Z,404
2017-05-08T04:59:11.897Z,436
2017-05-08T05:00:11.919Z,480
2017-05-08T05:01:11.940Z,532
2017-05-08T05:02:26.582Z,604
2017-05-08T05:03:11.982Z,644
2017-05-08T05:04:26.617Z,708
2017-05-08T05:05:12.023Z,740
2017-05-08T05:06:12.045Z,772
2017-05-08T05:07:12.067Z,776
2017-05-08T05:08:26.704Z,748
2017-05-08T05:09:12.109Z,720
2017-05-08T05:10:11.822Z,688
2017-05-08T05:11:12.147Z,644
2017-05-08T05:12:12.170Z,592
2017-05-08T05:13:12.185Z,536
2017-05-08T05:14:12.210Z,484
2017-05-08T05:15:12.230Z,440
2017-05-08T05:16:12.257Z,420
2017-05-08T05:17:27.188Z,416
2017-05-08T05:18:26.912Z,428
2017-05-08T05:19:26.940Z,428
2017-05-08T05:20:26.951Z,424
2017-05-08T05:21:27.000Z,420
2017-05-08T05:22:12.073Z,420
2017-05-08T05:23:27.015Z,420
2017-05-08T05:24:12.115Z,424
2017-05-08T05:25:12.438Z,428
2017-05-08T05:26:12.156Z,428
2017-05-08T05:27:12.181Z,436
2017-05-08T05:28:12.205Z,460
2017-05-08T05:29:12.221Z,516
2017-05-08T05:30:12.239Z,588
2017-05-08T05:31:27.182Z,656
2017-05-08T05:32:12.584Z,688
2017-05-08T05:33:12.305Z,720
2017-05-08T05:34:12.325Z,732
2017-05-08T05:35:12.345Z,712
2017-05-08T05:38:12.712Z,648
2017-05-08T05:39:12.732Z,648
2017-05-08T05:40:12.752Z,656
2017-05-08T05:41:12.469Z,680
2017-05-08T05:42:12.492Z,736
2017-05-08T05:43:12.509Z,808
2017-05-08T05:44:12.226Z,864
2017-05-08T05:45:12.853Z,916
2017-05-08T05:46:12.578Z,948
2017-05-08T05:47:12.899Z,988
2017-05-08T05:48:27.532Z,1048
2017-05-08T05:49:12.640Z,1076
2017-05-08T05:50:12.962Z,1112
2017-05-08T05:51:12.977Z,1160
2017-05-08T05:52:12.998Z,1276
2017-05-08T05:53:12.721Z,1452
2017-05-08T05:54:13.040Z,1640
2017-05-08T05:55:27.678Z,1876
2017-05-08T05:56:12.783Z,1960
2017-05-08T05:57:12.497Z,1956
2017-05-08T05:58:12.820Z,1804
2017-05-08T05:59:13.153Z,1624
2017-05-08T06:00:13.165Z,1472
2017-05-08T06:01:13.209Z,1416
2017-05-08T06:02:12.911Z,1444
2017-05-08T06:03:13.230Z,1508
2017-05-08T06:05:13.269Z,1652
2017-05-08T06:06:12.988Z,1764
2017-05-08T06:07:27.929Z,1856
2017-05-08T06:08:12.727Z,1864
2017-05-08T06:09:27.968Z,1784
2017-05-08T06:10:13.374Z,1728
2017-05-08T06:11:28.010Z,1676
2017-05-08T06:12:13.116Z,1660
2017-05-08T06:13:13.445Z,1656
2017-05-08T06:14:13.152Z,1668
2017-05-08T06:15:13.175Z,1608
2017-05-08T06:16:13.515Z,1536
2017-05-08T06:17:28.140Z,1544
2017-05-08T06:18:13.237Z,1536
2017-05-08T06:19:13.561Z,1476
2017-05-08T06:20:13.282Z,1388
2017-05-08T06:21:13.605Z,1328
2017-05-08T06:23:13.689Z,1288
2017-05-08T06:25:13.694Z,1304
2017-05-08T06:26:13.707Z,1300
2017-05-08T06:27:28.043Z,1292
2017-05-08T06:29:13.774Z,1388
2017-05-08T06:30:13.793Z,1508
2017-05-08T06:31:13.818Z,1612
2017-05-08T06:32:13.544Z,1672
2017-05-08T06:33:13.854Z,1708
2017-05-08T06:34:28.495Z,1812
2017-05-08T06:35:13.901Z,1916
2017-05-08T06:36:28.539Z,2012
2017-05-08T06:37:13.940Z,1976
2017-05-08T06:38:13.960Z,1836
2017-05-08T06:40:14.005Z,1668
2017-05-08T06:41:13.721Z,1692
2017-05-08T06:42:14.347Z,1672
2017-05-08T06:43:28.685Z,1500
2017-05-08T06:44:13.827Z,1352
2017-05-08T06:45:14.108Z,1172
2017-05-08T06:46:13.828Z,1032
2017-05-08T06:47:13.847Z,960
2017-05-08T06:48:13.872Z,928
2017-05-08T06:49:14.195Z,920
2017-05-08T06:50:28.834Z,964
2017-05-08T06:51:28.854Z,1024
2017-05-08T06:52:28.876Z,1072
2017-05-08T06:53:13.978Z,1120
2017-05-08T06:54:14.031Z,1184
2017-05-08T06:55:14.023Z,1220
2017-05-08T06:56:28.961Z,1320
2017-05-08T06:57:14.373Z,1416
2017-05-08T06:58:29.002Z,1600
2017-05-08T06:59:14.412Z,1780
2017-05-08T07:00:14.126Z,2084
2017-05-08T07:01:14.449Z,2412
2017-05-08T07:02:14.472Z,2692
2017-05-08T07:03:14.498Z,2900
2017-05-08T07:04:14.211Z,3024
2017-05-08T07:05:14.536Z,3040
2017-05-08T07:06:14.255Z,2992
2017-05-08T07:07:14.277Z,3008
2017-05-08T07:08:13.997Z,3036
2017-05-08T07:09:29.248Z,3076
2017-05-08T07:11:14.670Z,3148
2017-05-08T07:12:14.379Z,3344
2017-05-08T07:13:14.406Z,3556
2017-05-08T07:14:14.728Z,3648
2017-05-08T07:15:14.451Z,3748
2017-05-08T07:16:14.772Z,3876
2017-05-08T07:17:14.794Z,4004
2017-05-08T07:18:14.819Z,4208
2017-05-08T07:19:14.534Z,4500
2017-05-08T07:20:14.556Z,4872
2017-05-08T07:21:14.576Z,4956
2017-05-08T07:22:29.214Z,4920
2017-05-08T07:23:14.625Z,4980
2017-05-08T07:24:14.038Z,4876
2017-05-08T07:25:14.965Z,4696
2017-05-08T07:26:14.377Z,4340
2017-05-08T07:27:15.019Z,3760
2017-05-08T07:28:15.036Z,3348
2017-05-08T07:29:14.746Z,3320
2017-05-08T07:30:29.688Z,3592
2017-05-08T07:31:15.095Z,3556
2017-05-08T07:32:14.513Z,3488
2017-05-08T07:33:14.836Z,3772
2017-05-08T07:34:14.554Z,3992
2017-05-08T07:35:14.877Z,3924
2017-05-08T07:36:14.909Z,3864
2017-05-08T07:37:15.227Z,3704
2017-05-08T07:38:14.949Z,3576
2017-05-08T07:39:14.970Z,3560
2017-05-08T07:40:14.989Z,3272
2017-05-08T07:41:29.628Z,2760
2017-05-08T07:42:14.729Z,2564
2017-05-08T07:43:29.669Z,2544
2017-05-08T07:46:30.041Z,2640
2017-05-08T07:47:15.140Z,2528
2017-05-08T07:48:15.179Z,2364
2017-05-08T07:49:14.881Z,2312
2017-05-08T07:50:15.205Z,2392
2017-05-08T07:51:15.533Z,2556
2017-05-08T07:52:14.980Z,2568
2017-05-08T07:53:15.572Z,2496
2017-05-08T07:54:29.914Z,2300
2017-05-08T07:55:30.235Z,2300
2017-05-08T07:56:30.286Z,2308
2017-05-08T07:57:29.675Z,2424
2017-05-08T07:58:30.301Z,2168
2017-05-08T07:59:14.794Z,1940
2017-05-08T08:00:15.728Z,2040
2017-05-08T08:01:15.750Z,2108
2017-05-08T08:02:30.081Z,2092
2017-05-08T08:03:15.792Z,2156
2017-05-08T08:04:15.816Z,2368
2017-05-08T08:05:15.847Z,2384
2017-05-08T08:07:15.904Z,2184
2017-05-08T08:08:15.620Z,2168
2017-05-08T08:09:15.941Z,2136
2017-05-08T08:10:15.957Z,2004
2017-05-08T08:11:15.965Z,2228
2017-05-08T08:12:15.988Z,2316
2017-05-08T08:13:16.029Z,2240
2017-05-08T08:15:15.746Z,2224
2017-05-08T08:16:16.075Z,2352
2017-05-08T08:17:16.111Z,2368
2017-05-08T08:18:30.735Z,2568
2017-05-08T08:19:15.531Z,2996
2017-05-08T08:20:15.857Z,3348
2017-05-08T08:21:16.179Z,3468
2017-05-08T08:22:16.206Z,3932
2017-05-08T08:23:30.843Z,3404
2017-05-08T08:24:15.941Z,3016
2017-05-08T08:25:30.886Z,2408
2017-05-08T08:26:16.291Z,2456
2017-05-08T08:27:16.008Z,2424
2017-05-08T08:28:16.344Z,2668
2017-05-08T08:29:16.061Z,2792
2017-05-08T08:31:16.406Z,2884
2017-05-08T08:33:30.752Z,2320
2017-05-08T08:34:16.173Z,2108
2017-05-08T08:35:16.488Z,1868
2017-05-08T08:36:16.506Z,1856
2017-05-08T08:37:15.920Z,1772
2017-05-08T08:38:16.552Z,1912
2017-05-08T08:39:30.884Z,2004
2017-05-08T08:40:16.590Z,2204
2017-05-08T08:41:16.317Z,2412
2017-05-08T08:42:16.635Z,2644
2017-05-08T08:43:16.652Z,2428
2017-05-08T08:45:31.315Z,2432
2017-05-08T08:46:16.416Z,2400
2017-05-08T08:47:16.746Z,2360
2017-05-08T08:48:16.461Z,2272
2017-05-08T08:49:16.480Z,2336
2017-05-08T08:50:16.500Z,2312
2017-05-08T08:51:16.522Z,2352
2017-05-08T08:52:16.247Z,2228
2017-05-08T08:53:16.868Z,2368
2017-05-08T08:54:16.893Z,2488
2017-05-08T08:55:16.609Z,2728
2017-05-08T08:56:16.633Z,2748
2017-05-08T08:57:16.648Z,2552
2017-05-08T08:58:31.289Z,2264
2017-05-08T08:59:17.001Z,2184
2017-05-08T09:00:31.643Z,2132
2017-05-08T09:01:16.739Z,2024
2017-05-08T09:02:17.069Z,1948
2017-05-08T09:03:17.086Z,1892
2017-05-08T09:04:16.507Z,2072
2017-05-08T09:05:31.744Z,2108
2017-05-08T09:06:17.150Z,2156
2017-05-08T09:07:17.173Z,2168
2017-05-08T09:08:17.195Z,2108
2017-05-08T09:09:16.604Z,2168
2017-05-08T09:10:16.629Z,2144
2017-05-08T09:11:17.253Z,2152
2017-05-08T09:12:31.893Z,2300
2017-05-08T09:13:16.690Z,2268
2017-05-08T09:14:17.318Z,2112
2017-05-08T09:15:17.336Z,2024
2017-05-08T09:16:17.359Z,2368
2017-05-08T09:19:17.422Z,2832
2017-05-08T09:21:32.098Z,3340
2017-05-08T09:22:17.501Z,3676
2017-05-08T09:23:17.510Z,4156
2017-05-08T09:24:17.226Z,3908
2017-05-08T09:25:32.172Z,4124
2017-05-08T09:26:17.572Z,4200
2017-05-08T09:27:17.594Z,4664
2017-05-08T09:28:17.312Z,5212
2017-05-08T09:29:31.948Z,5812
2017-05-08T09:30:17.656Z,5796
2017-05-08T09:31:17.375Z,5188
2017-05-08T09:32:17.396Z,4344
2017-05-08T09:33:17.419Z,3584
2017-05-08T09:34:32.360Z,2968
2017-05-08T09:35:17.461Z,2608
2017-05-08T09:36:17.486Z,2432
2017-05-08T09:37:32.429Z,2324
2017-05-08T09:38:17.529Z,2276
2017-05-08T09:39:17.551Z,2204
2017-05-08T09:40:17.875Z,2164
2017-05-08T09:41:17.927Z,2316
2017-05-08T09:42:32.232Z,2868
2017-05-08T09:43:17.944Z,3148
2017-05-08T09:44:17.961Z,3256
2017-05-08T09:45:17.369Z,3364
2017-05-08T09:46:17.702Z,3324
2017-05-08T09:47:17.718Z,3056
2017-05-08T09:48:17.740Z,2764
2017-05-08T09:49:17.763Z,2672
2017-05-08T09:50:17.786Z,2628
2017-05-08T09:51:17.829Z,2544
2017-05-08T09:52:18.129Z,2428
2017-05-08T09:53:32.774Z,2404
2017-05-08T09:54:18.172Z,2408
2017-05-08T09:55:18.195Z,2480
2017-05-08T09:56:18.216Z,2604
2017-05-08T09:57:18.237Z,2660
2017-05-08T09:58:17.651Z,2436
2017-05-08T09:59:32.899Z,2312
2017-05-08T10:00:18.300Z,2308
2017-05-08T10:01:18.336Z,2360
2017-05-08T10:02:18.365Z,2436
2017-05-08T10:03:18.373Z,2492
2017-05-08T10:04:18.390Z,2536
2017-05-08T10:05:18.409Z,2536
2017-05-08T10:06:17.822Z,2624
2017-05-08T10:07:18.455Z,2620
2017-05-08T10:08:32.788Z,2556
2017-05-08T10:09:18.196Z,2504
2017-05-08T10:11:18.542Z,2772
2017-05-08T10:12:18.256Z,3072
2017-05-08T10:13:18.279Z,3184
2017-05-08T10:14:18.604Z,3212
2017-05-08T10:15:18.637Z,3252
2017-05-08T10:16:18.345Z,3224
2017-05-08T10:17:18.371Z,3224
2017-05-08T10:18:33.002Z,3180
2017-05-08T10:19:18.721Z,3144
2017-05-08T10:21:33.370Z,3012
2017-05-08T10:23:18.493Z,3048
2017-05-08T10:24:18.824Z,3152
2017-05-08T10:25:18.840Z,3192
2017-05-08T10:26:18.253Z,3344
2017-05-08T10:27:18.885Z,3504
2017-05-08T10:28:18.908Z,3632
2017-05-08T10:29:33.546Z,3712
2017-05-08T10:30:18.945Z,3792
2017-05-08T10:31:33.587Z,4080
2017-05-08T10:32:18.992Z,4424
2017-05-08T10:33:33.629Z,4852
2017-05-08T10:34:18.427Z,4840
2017-05-08T10:35:18.751Z,4588
2017-05-08T10:36:33.087Z,3916
2017-05-08T10:37:18.800Z,3828
2017-05-08T10:38:18.816Z,3504
2017-05-08T10:39:18.838Z,3328
2017-05-08T10:40:33.780Z,3296
2017-05-08T10:41:18.883Z,3304
2017-05-08T10:42:18.903Z,3184
2017-05-08T10:43:19.229Z,3032
2017-05-08T10:44:18.948Z,2948
2017-05-08T10:45:18.969Z,2932
2017-05-08T10:46:18.991Z,3008
2017-05-08T10:47:19.013Z,2936
2017-05-08T10:48:19.035Z,2884
2017-05-08T10:49:33.976Z,2860
2017-05-08T10:50:33.997Z,2796
2017-05-08T10:51:33.716Z,2820
2017-05-08T10:52:19.123Z,2812
2017-05-08T10:53:19.149Z,2896
2017-05-08T10:54:19.172Z,2996
2017-05-08T10:55:19.492Z,2976
2017-05-08T10:56:34.126Z,3016
2017-05-08T10:57:19.236Z,2948
2017-05-08T10:58:19.561Z,2888
2017-05-08T10:59:18.969Z,2876
2017-05-08T11:00:19.595Z,2904
2017-05-08T11:01:19.615Z,2960
2017-05-08T11:02:19.337Z,2976
2017-05-08T11:03:19.364Z,2944
2017-05-08T11:04:19.684Z,2972
2017-05-08T11:06:19.733Z,3076
2017-05-08T11:07:19.446Z,2992
2017-05-08T11:08:19.469Z,3068
2017-05-08T11:09:19.801Z,3316
2017-05-08T11:10:19.828Z,3832
2017-05-08T11:11:19.537Z,4068
2017-05-08T11:12:34.476Z,3856
2017-05-08T11:13:19.576Z,3704
2017-05-08T11:14:19.600Z,3816
2017-05-08T11:15:19.621Z,3900
2017-05-08T11:16:19.945Z,3736
2017-05-08T11:17:19.360Z,3836
2017-05-08T11:18:19.382Z,3844
2017-05-08T11:19:20.313Z,3888
2017-05-08T11:20:20.036Z,3924
2017-05-08T11:23:19.796Z,3520
2017-05-08T11:24:19.821Z,4044
2017-05-08T11:25:19.538Z,4468
2017-05-08T11:26:19.861Z,4896
2017-05-08T11:27:20.216Z,4872
2017-05-08T11:28:34.826Z,4428
2017-05-08T11:29:20.231Z,4136
2017-05-08T11:30:20.258Z,3988
2017-05-08T11:31:19.669Z,4132
2017-05-08T11:32:19.992Z,4336
2017-05-08T11:33:20.015Z,4476
2017-05-08T11:34:20.345Z,4328
2017-05-08T11:35:20.370Z,4004
2017-05-08T11:36:20.382Z,3828
2017-05-08T11:38:20.128Z,3676
2017-05-08T11:39:35.064Z,3656
2017-05-08T11:40:35.089Z,3532
2017-05-08T11:41:20.189Z,3384
2017-05-08T11:42:20.522Z,3516
2017-05-08T11:43:35.155Z,3592
2017-05-08T11:44:20.562Z,3340
2017-05-08T11:45:20.584Z,2828
2017-05-08T11:46:20.303Z,2504
2017-05-08T11:47:20.632Z,2436
2017-05-08T11:48:35.269Z,2380
2017-05-08T11:49:20.674Z,2392
2017-05-08T11:50:20.693Z,2320
2017-05-08T11:51:20.718Z,2284
2017-05-08T11:52:20.742Z,2360
2017-05-08T11:53:20.755Z,2500
2017-05-08T11:54:20.784Z,2788
2017-05-08T11:55:20.809Z,2872
2017-05-08T11:56:20.525Z,2732
2017-05-08T11:58:20.878Z,2608
2017-05-08T11:59:20.891Z,2600
2017-05-08T12:00:20.945Z,2476
2017-05-08T12:01:20.940Z,2448
2017-05-08T12:02:20.662Z,2456
2017-05-08T12:03:20.672Z,2472
2017-05-08T12:04:21.001Z,2360
2017-05-08T12:05:21.021Z,2340
2017-05-08T12:06:21.050Z,2208
2017-05-08T12:07:21.069Z,2276
2017-05-08T12:08:21.094Z,2260
2017-05-08T12:09:20.809Z,2432
2017-05-08T12:10:21.144Z,2456
2017-05-08T12:11:21.155Z,2464
2017-05-08T12:12:20.872Z,2412
2017-05-08T12:13:21.205Z,2444
2017-05-08T12:14:21.224Z,2624
2017-05-08T12:15:35.857Z,2796
2017-05-08T12:16:21.266Z,3068
2017-05-08T12:17:21.285Z,3216
2017-05-08T12:18:21.304Z,3200
2017-05-08T12:19:35.645Z,3268
2017-05-08T12:20:21.347Z,3364
2017-05-08T12:21:35.991Z,3020
2017-05-08T12:22:21.394Z,2988
2017-05-08T12:23:36.032Z,3260
2017-05-08T12:24:36.052Z,3296
2017-05-08T12:25:36.074Z,3140
2017-05-08T12:26:21.479Z,3264
2017-05-08T12:27:21.510Z,3468
2017-05-08T12:28:36.141Z,3428
2017-05-08T12:29:21.549Z,3860
2017-05-08T12:30:21.568Z,4600
2017-05-08T12:31:36.204Z,4152
2017-05-08T12:32:21.308Z,4208
2017-05-08T12:33:21.331Z,4756
2017-05-08T12:34:21.660Z,5004
2017-05-08T12:35:21.373Z,4708
2017-05-08T12:36:21.426Z,4600
2017-05-08T12:37:21.719Z,4472
2017-05-08T12:38:21.749Z,4148
2017-05-08T12:39:21.769Z,3996
2017-05-08T12:40:21.787Z,4048
2017-05-08T12:41:21.504Z,3764
2017-05-08T12:42:21.831Z,3460
2017-05-08T12:43:21.549Z,3568
2017-05-08T12:44:21.571Z,3992
2017-05-08T12:45:21.593Z,3424
2017-05-08T12:46:21.621Z,3268
2017-05-08T12:47:36.253Z,3072
2017-05-08T12:48:21.963Z,3188
2017-05-08T12:50:21.707Z,3036
2017-05-08T12:51:22.029Z,3580
2017-05-08T12:52:22.050Z,3236
2017-05-08T12:53:22.075Z,2940
2017-05-08T12:54:36.409Z,2860
2017-05-08T12:55:22.114Z,2736
2017-05-08T12:56:36.754Z,2520
2017-05-08T12:57:22.161Z,2308
2017-05-08T12:58:22.185Z,2460
2017-05-08T12:59:22.203Z,2800
2017-05-08T13:00:22.227Z,2980
2017-05-08T13:01:22.253Z,3000
2017-05-08T13:03:37.160Z,2216
2017-05-08T13:04:22.313Z,1812
2017-05-08T13:05:22.341Z,1324
2017-05-08T13:06:22.091Z,1612
2017-05-08T13:07:22.081Z,2316
2017-05-08T13:08:22.098Z,2536
2017-05-08T13:09:22.424Z,2788
2017-05-08T13:10:22.449Z,2976
2017-05-08T13:11:22.162Z,2848
2017-05-08T13:12:37.106Z,2584
2017-05-08T13:13:22.209Z,2412
2017-05-08T13:14:37.149Z,2288
2017-05-08T13:15:22.254Z,2252
2017-05-08T13:16:22.580Z,2224
2017-05-08T13:18:37.271Z,2136
2017-05-08T13:19:22.639Z,2196
2017-05-08T13:20:22.661Z,2264
2017-05-08T13:21:22.985Z,2336
2017-05-08T13:22:22.706Z,2308
2017-05-08T13:23:22.735Z,2132
2017-05-08T13:24:22.752Z,1836
2017-05-08T13:25:22.767Z,1828
2017-05-08T13:26:22.794Z,2196
2017-05-08T13:27:22.812Z,2360
2017-05-08T13:28:22.832Z,2396
2017-05-08T13:29:22.849Z,2564
2017-05-08T13:30:22.870Z,2684
2017-05-08T13:31:22.588Z,2728
2017-05-08T13:32:22.611Z,2684
2017-05-08T13:34:22.954Z,2372
2017-05-08T13:35:22.979Z,2200
2017-05-08T13:36:22.997Z,1792
2017-05-08T13:37:23.016Z,1560
2017-05-08T13:38:23.040Z,1348
2017-05-08T13:40:23.074Z,1380
2017-05-08T13:41:23.098Z,1240
2017-05-08T13:42:23.121Z,1140
2017-05-08T13:43:37.754Z,1100
2017-05-08T13:44:37.774Z,1340
2017-05-08T13:45:37.797Z,1684
2017-05-08T13:46:37.813Z,2024
2017-05-08T13:47:37.834Z,1984
2017-05-08T13:48:22.943Z,2428
2017-05-08T13:49:23.257Z,2768
2017-05-08T13:50:37.895Z,2948
2017-05-08T13:51:23.300Z,3060
2017-05-08T13:53:23.341Z,3240
2017-05-08T13:54:23.361Z,3300
2017-05-08T13:55:23.384Z,3408
2017-05-08T13:56:23.399Z,3500
2017-05-08T13:57:23.426Z,3648
2017-05-08T13:58:38.059Z,3780
2017-05-08T13:59:23.467Z,3844
2017-05-08T14:00:23.491Z,3864
2017-05-08T14:01:38.117Z,4224
2017-05-08T14:02:38.140Z,3988
2017-05-08T14:03:23.548Z,3612
2017-05-08T14:05:23.281Z,2856
2017-05-08T14:06:38.222Z,2644
2017-05-08T14:07:23.627Z,2676
2017-05-08T14:08:23.649Z,2236
2017-05-08T14:09:23.663Z,2056
2017-05-08T14:10:23.691Z,2212
2017-05-08T14:11:23.757Z,2116
2017-05-08T14:12:23.728Z,2168
2017-05-08T14:13:23.747Z,1984
2017-05-08T14:14:23.767Z,1896
2017-05-08T14:15:38.403Z,2060
2017-05-08T14:16:38.424Z,1968
2017-05-08T14:17:23.827Z,1892
2017-05-08T14:18:23.848Z,1836
2017-05-08T14:19:38.497Z,1760
2017-05-08T14:20:23.887Z,1744
2017-05-08T14:21:23.917Z,1672
2017-05-08T14:22:38.544Z,1632
2017-05-08T14:23:23.957Z,1520
2017-05-08T14:25:23.994Z,1396
2017-05-08T14:26:23.715Z,1408
2017-05-08T14:27:23.731Z,1376
2017-05-08T14:28:24.054Z,1600
2017-05-08T14:29:38.690Z,1860
2017-05-08T14:30:38.405Z,2344
2017-05-08T14:31:38.426Z,3060